Redfield, South Dakota
Current Conditions -  °F | °C
As of 3:55 PM on Sunday 21 Dec 2014 (Local Time) from KHON Reporting Station
Clear Clear  
Wind Chill: 28°   Ceiling: Unl
Heat Index: 36°   Visibility: 8mi
Dew Point: 32°   Wind: 12mph
Humidity: 86%   Direction: 140°SE
Pressure: 29.49"   Gusts: NA
Location:  44.88°N, 98.52°W
Report Text: KHON 212155Z AUTO 14010KT 8SM CLR 02/00 A2949 RMK AO2 SLP998 T00220000
Loading
Personal Weather Stations






























Interactive Weather Map New forecast layout! Learn more

10-Day Weather Forecast

Advertisements
Track Severe Weather on mobile